Time;durP1;ratioP1;P1;durP2;ratioP2;P2;SDS_P1;SDS_P2;PMS_P1;PMS_P2;Temp;Humidity;BMP_temperature;BMP_pressure;BME280_temperature;BME280_humidity;BME280_pressure;Samples;Min_cycle;Max_cycle;Signal;HPM_P1;HPM_P2
2022/03/30 00:02:00;;;;;;;25.17;10.93;;;4.20;99.90;;;;;;5009214;28;20101;-77
2022/03/30 00:04:26;;;;;;;30.85;12.27;;;4.20;99.90;;;;;;5009340;28;20578;-77
2022/03/30 00:06:52;;;;;;;29.13;12.60;;;4.30;99.90;;;;;;5008527;28;20057;-77
2022/03/30 00:09:17;;;;;;;30.27;11.98;;;4.40;99.90;;;;;;5008880;28;20030;-77
2022/03/30 00:11:43;;;;;;;32.63;12.90;;;4.50;99.90;;;;;;5009345;28;20034;-78
2022/03/30 00:14:08;;;;;;;28.52;12.10;;;4.70;99.90;;;;;;5002291;28;20026;-77
2022/03/30 00:16:34;;;;;;;25.58;11.73;;;4.80;99.90;;;;;;5010222;28;20109;-77
2022/03/30 00:19:01;;;;;;;30.70;12.25;;;4.80;99.90;;;;;;5009236;28;20054;-77
2022/03/30 00:21:26;;;;;;;26.25;10.52;;;4.90;99.90;;;;;;5008656;28;20058;-78
2022/03/30 00:23:52;;;;;;;30.33;11.70;;;4.90;99.90;;;;;;5008006;28;20037;-77
2022/03/30 00:26:18;;;;;;;27.40;11.20;;;4.90;99.90;;;;;;5009129;28;20363;-77
2022/03/30 00:28:44;;;;;;;28.50;12.65;;;5.00;99.90;;;;;;5008467;28;20035;-77
2022/03/30 00:31:11;;;;;;;28.30;13.35;;;5.00;99.90;;;;;;5007094;28;20040;-77
2022/03/30 00:33:37;;;;;;;29.98;11.73;;;5.10;99.90;;;;;;5007649;28;20022;-77
2022/03/30 00:36:03;;;;;;;26.38;10.85;;;5.10;99.90;;;;;;5005770;28;20057;-77
2022/03/30 00:38:28;;;;;;;28.90;11.68;;;5.20;99.90;;;;;;5007887;28;20045;-77
2022/03/30 00:40:54;;;;;;;27.88;11.25;;;5.20;99.90;;;;;;5007933;28;20030;-77
2022/03/30 00:43:20;;;;;;;27.08;12.50;;;5.30;99.90;;;;;;5007775;28;20053;-78
2022/03/30 00:45:45;;;;;;;30.08;11.13;;;5.30;99.90;;;;;;5007976;28;20038;-77
2022/03/30 00:48:11;;;;;;;25.33;11.07;;;5.30;99.90;;;;;;5008304;28;20061;-78
2022/03/30 00:50:37;;;;;;;28.23;11.57;;;5.40;99.90;;;;;;5008400;28;20045;-77
2022/03/30 00:53:02;;;;;;;29.70;12.77;;;5.30;99.90;;;;;;5008742;28;20057;-78
2022/03/30 00:55:28;;;;;;;28.92;11.40;;;5.40;99.90;;;;;;5008869;28;20022;-77
2022/03/30 00:57:57;;;;;;;28.88;12.38;;;5.50;99.90;;;;;;5008048;28;20045;-78
2022/03/30 01:00:23;;;;;;;32.03;12.55;;;5.50;99.90;;;;;;5009445;28;20034;-78
2022/03/30 01:02:49;;;;;;;25.40;11.30;;;5.50;99.90;;;;;;5009132;28;20022;-78
2022/03/30 01:05:16;;;;;;;27.88;12.20;;;5.50;99.90;;;;;;5009149;28;20027;-78
2022/03/30 01:07:41;;;;;;;24.60;11.48;;;5.60;99.90;;;;;;5008248;28;20022;-78
2022/03/30 01:10:09;;;;;;;28.65;11.90;;;5.60;99.90;;;;;;5007002;28;20030;-77
2022/03/30 01:12:38;;;;;;;28.50;11.80;;;5.60;99.90;;;;;;5008865;28;20038;-78
2022/03/30 01:15:08;;;;;;;28.15;12.25;;;5.60;99.90;;;;;;5008227;28;20080;-77
2022/03/30 01:17:34;;;;;;;28.98;12.63;;;5.70;99.90;;;;;;5006840;28;20034;-78
2022/03/30 01:20:00;;;;;;;27.65;12.88;;;5.70;99.90;;;;;;5007584;28;20497;-78
2022/03/30 01:22:25;;;;;;;24.25;11.27;;;5.70;99.90;;;;;;5008494;28;20030;-78
2022/03/30 01:24:51;;;;;;;28.23;13.30;;;5.70;99.90;;;;;;5007870;28;20031;-77
2022/03/30 01:27:17;;;;;;;27.20;12.93;;;5.80;99.90;;;;;;5007424;28;20018;-77
2022/03/30 01:32:28;;;;;;;24.55;11.55;;;5.80;99.90;;;;;;5006944;28;20038;-77
2022/03/30 01:34:59;;;;;;;28.63;11.75;;;5.70;99.90;;;;;;4987177;28;20023;-77
2022/03/30 01:37:25;;;;;;;;;;;5.70;99.90;;;;;;4988910;28;20023;-77
2022/03/30 01:39:51;;;;;;;29.40;12.10;;;5.80;99.90;;;;;;5006641;28;19960;-78
2022/03/30 01:42:17;;;;;;;31.60;12.95;;;5.80;99.90;;;;;;5007050;28;20030;-78
2022/03/30 01:44:42;;;;;;;23.65;10.65;;;5.90;99.90;;;;;;5006975;28;20034;-77
2022/03/30 01:47:10;;;;;;;21.30;10.02;;;6.00;99.90;;;;;;5007321;28;20078;-78
2022/03/30 01:49:36;;;;;;;23.35;9.48;;;6.00;99.90;;;;;;5007347;28;20027;-78
2022/03/30 01:52:02;;;;;;;14.90;5.78;;;6.10;99.90;;;;;;5008012;28;20034;-78
2022/03/30 01:54:33;;;;;;;12.60;4.28;;;6.20;99.90;;;;;;5008273;28;20033;-77
2022/03/30 01:56:59;;;;;;;5.55;3.33;;;6.30;99.90;;;;;;5006911;28;20034;-77
2022/03/30 01:59:25;;;;;;;5.15;2.60;;;6.30;99.90;;;;;;5006831;28;20567;-78
2022/03/30 02:01:52;;;;;;;7.75;3.47;;;6.30;99.90;;;;;;5007064;28;20465;-78
2022/03/30 02:04:17;;;;;;;5.30;2.33;;;6.30;99.90;;;;;;4996481;28;20546;-77
2022/03/30 02:06:43;;;;;;;4.05;2.38;;;6.40;99.90;;;;;;4988104;28;20471;-78
2022/03/30 02:09:11;;;;;;;6.28;2.30;;;6.40;99.90;;;;;;4987010;28;20086;-77
2022/03/30 02:11:38;;;;;;;3.38;1.38;;;6.40;99.90;;;;;;4988204;28;20027;-77
2022/03/30 02:14:03;;;;;;;5.80;2.45;;;6.30;99.90;;;;;;4993869;28;20030;-79
2022/03/30 02:16:29;;;;;;;8.35;2.00;;;6.30;99.90;;;;;;4998808;28;20014;-77
2022/03/30 02:18:54;;;;;;;4.43;1.85;;;6.30;99.90;;;;;;5007297;28;20026;-78
2022/03/30 02:21:21;;;;;;;2.83;1.17;;;6.30;99.90;;;;;;5006538;28;20082;-78
2022/03/30 02:23:47;;;;;;;5.18;1.35;;;6.30;99.90;;;;;;5007643;28;20023;-78
2022/03/30 02:26:14;;;;;;;2.55;1.60;;;6.30;99.90;;;;;;5002731;28;20024;-76
2022/03/30 02:28:41;;;;;;;4.03;2.17;;;6.30;99.90;;;;;;5002121;28;20026;-77
2022/03/30 02:31:07;;;;;;;3.28;1.35;;;6.20;99.90;;;;;;5002244;28;20102;-77
2022/03/30 02:33:33;;;;;;;2.15;0.60;;;6.30;99.90;;;;;;5001453;28;20066;-77
2022/03/30 02:35:58;;;;;;;0.98;0.47;;;6.20;99.90;;;;;;5001303;28;20066;-77
2022/03/30 02:38:24;;;;;;;4.97;0.55;;;6.10;99.90;;;;;;5000632;28;20113;-77
2022/03/30 02:40:49;;;;;;;0.88;0.57;;;6.10;99.90;;;;;;4999861;28;20454;-77
2022/03/30 02:43:19;;;;;;;1.40;0.60;;;6.10;99.90;;;;;;5001444;28;20027;-77
2022/03/30 02:45:46;;;;;;;4.13;0.75;;;6.00;99.90;;;;;;5001069;28;20490;-77
2022/03/30 02:48:23;;;;;;;0.77;0.70;;;6.00;99.90;;;;;;5000657;28;20038;-76
2022/03/30 02:50:54;;;;;;;0.80;0.40;;;6.00;99.90;;;;;;5001016;28;20030;-77
2022/03/30 02:53:20;;;;;;;2.90;0.70;;;6.00;99.90;;;;;;5000876;28;20061;-77
2022/03/30 02:55:47;;;;;;;0.93;0.80;;;5.90;99.90;;;;;;5000957;28;20042;-77
2022/03/30 02:58:13;;;;;;;1.40;0.32;;;5.90;99.90;;;;;;5000530;28;20085;-77
2022/03/30 03:00:39;;;;;;;0.63;0.28;;;5.90;99.90;;;;;;5001022;28;20113;-77
2022/03/30 03:03:07;;;;;;;2.22;0.68;;;5.90;99.90;;;;;;5001058;28;20157;-76
2022/03/30 03:05:34;;;;;;;0.52;0.30;;;5.80;99.90;;;;;;5001395;28;20112;-77
2022/03/30 03:08:03;;;;;;;0.82;0.40;;;5.70;99.90;;;;;;5000998;28;20078;-78
2022/03/30 03:10:30;;;;;;;0.25;0.25;;;5.50;99.90;;;;;;5001518;28;20092;-77
2022/03/30 03:12:56;;;;;;;0.90;0.50;;;5.50;99.90;;;;;;4990506;28;20446;-76
2022/03/30 03:15:22;;;;;;;0.85;0.40;;;5.40;99.90;;;;;;4996681;28;20026;-76
2022/03/30 03:17:48;;;;;;;0.85;0.50;;;5.30;99.90;;;;;;5000235;28;20072;-77
2022/03/30 03:20:14;;;;;;;0.85;0.50;;;5.20;99.90;;;;;;5000705;28;20026;-76
2022/03/30 03:22:41;;;;;;;1.17;0.40;;;5.20;99.90;;;;;;5000566;28;20035;-77
2022/03/30 03:25:08;;;;;;;1.55;0.90;;;5.10;99.90;;;;;;5000012;28;20041;-77
2022/03/30 03:27:33;;;;;;;0.85;0.50;;;5.00;99.90;;;;;;5000893;28;20251;-77
2022/03/30 03:29:59;;;;;;;1.55;0.45;;;5.10;99.90;;;;;;4999480;28;20526;-76
2022/03/30 03:32:25;;;;;;;1.70;0.70;;;5.20;99.90;;;;;;5002156;28;20030;-77
2022/03/30 03:34:50;;;;;;;1.00;0.63;;;5.20;99.90;;;;;;5004082;28;20037;-77
2022/03/30 03:37:16;;;;;;;2.47;0.40;;;5.20;99.90;;;;;;5004717;28;20053;-76
2022/03/30 03:39:42;;;;;;;0.65;0.40;;;5.30;99.90;;;;;;5003219;28;20448;-77
2022/03/30 03:42:08;;;;;;;0.85;0.65;;;5.30;99.90;;;;;;5003303;28;20041;-77
2022/03/30 03:44:34;;;;;;;1.55;0.50;;;5.40;99.90;;;;;;5003220;28;20074;-77
2022/03/30 03:46:59;;;;;;;0.77;0.60;;;5.40;99.90;;;;;;5002357;28;20082;-77
2022/03/30 03:49:25;;;;;;;0.80;0.60;;;5.40;99.90;;;;;;5003906;28;20085;-76
2022/03/30 03:51:51;;;;;;;1.95;0.73;;;5.40;92.80;;;;;;5004508;28;20359;-77
2022/03/30 03:54:16;;;;;;;1.42;0.80;;;5.50;82.40;;;;;;5004378;28;20023;-76
2022/03/30 03:56:42;;;;;;;2.50;0.60;;;5.40;62.40;;;;;;5004736;28;20073;-77
2022/03/30 03:59:07;;;;;;;1.13;0.60;;;5.40;46.30;;;;;;5005097;28;20030;-76
2022/03/30 04:01:34;;;;;;;1.08;0.50;;;5.40;49.50;;;;;;5004915;28;20026;-77
2022/03/30 04:03:59;;;;;;;2.60;0.75;;;5.40;53.40;;;;;;5006373;28;20018;-78
2022/03/30 04:06:25;;;;;;;1.52;0.73;;;5.40;57.20;;;;;;4997435;28;20030;-76
2022/03/30 04:08:50;;;;;;;0.90;0.40;;;5.30;65.40;;;;;;5004546;28;20112;-77
2022/03/30 04:11:16;;;;;;;2.10;0.40;;;5.20;67.70;;;;;;5004880;28;20380;-77
2022/03/30 04:13:42;;;;;;;3.38;0.40;;;5.00;82.50;;;;;;5005097;28;20029;-77
2022/03/30 04:16:08;;;;;;;1.58;0.45;;;5.00;91.50;;;;;;5005238;28;20079;-76
2022/03/30 04:18:33;;;;;;;0.50;0.50;;;5.00;93.80;;;;;;5005194;28;20018;-76
2022/03/30 04:20:59;;;;;;;1.63;0.50;;;4.90;94.00;;;;;;5004004;28;20045;-77
2022/03/30 04:23:24;;;;;;;1.27;0.50;;;4.80;96.30;;;;;;5003971;28;20030;-77
2022/03/30 04:25:50;;;;;;;2.28;0.70;;;4.80;93.50;;;;;;5004117;28;20045;-76
2022/03/30 04:28:17;;;;;;;2.28;0.80;;;4.70;96.40;;;;;;5003697;28;20405;-76
2022/03/30 04:30:43;;;;;;;0.82;0.60;;;4.70;97.60;;;;;;5003480;28;20482;-77
2022/03/30 04:33:09;;;;;;;3.90;0.60;;;4.70;99.90;;;;;;5004375;28;20090;-77
2022/03/30 04:35:35;;;;;;;0.68;0.50;;;4.70;99.90;;;;;;5002005;28;20525;-77
2022/03/30 04:38:01;;;;;;;1.70;0.60;;;4.70;99.90;;;;;;4998445;28;20271;-76
2022/03/30 04:40:28;;;;;;;1.73;0.90;;;4.70;99.90;;;;;;5002369;28;20058;-77
2022/03/30 04:42:54;;;;;;;2.15;0.63;;;4.60;99.90;;;;;;5003681;28;20025;-76
2022/03/30 04:45:21;;;;;;;0.52;0.50;;;4.60;99.90;;;;;;5003297;28;20026;-76
2022/03/30 04:47:47;;;;;;;1.05;0.65;;;4.50;99.90;;;;;;5003821;28;20018;-77
2022/03/30 04:50:13;;;;;;;2.25;0.77;;;4.50;99.90;;;;;;5003757;28;20031;-77
2022/03/30 04:52:40;;;;;;;2.17;0.70;;;4.50;99.90;;;;;;5003664;28;20030;-76
2022/03/30 04:55:07;;;;;;;2.67;1.02;;;4.50;99.90;;;;;;5002298;28;20054;-77
2022/03/30 04:57:32;;;;;;;0.73;0.65;;;4.40;99.90;;;;;;5002773;28;20041;-77
2022/03/30 04:59:58;;;;;;;1.42;0.80;;;4.30;99.90;;;;;;5002779;28;20106;-76
2022/03/30 05:02:25;;;;;;;1.25;0.70;;;4.40;99.90;;;;;;4998554;28;20034;-76
2022/03/30 05:04:50;;;;;;;1.80;0.80;;;4.50;99.90;;;;;;5002252;28;20033;-76
2022/03/30 05:07:16;;;;;;;1.90;0.70;;;4.60;99.90;;;;;;5000175;28;20481;-78
2022/03/30 05:09:41;;;;;;;5.03;1.40;;;4.60;99.90;;;;;;5000901;28;20082;-77
2022/03/30 05:12:07;;;;;;;2.05;0.80;;;4.60;99.90;;;;;;5001925;28;20089;-77
2022/03/30 05:14:33;;;;;;;1.60;0.90;;;4.60;99.90;;;;;;5002321;28;20041;-77
2022/03/30 05:16:59;;;;;;;2.20;0.80;;;4.50;99.90;;;;;;5001040;28;20026;-76
2022/03/30 05:19:25;;;;;;;2.30;1.05;;;4.40;99.90;;;;;;5003010;28;20518;-78
2022/03/30 05:21:51;;;;;;;1.85;0.73;;;4.40;99.90;;;;;;5001584;28;20031;-76
2022/03/30 05:24:24;;;;;;;1.60;0.80;;;4.30;99.90;;;;;;5001955;28;20129;-75
2022/03/30 05:26:50;;;;;;;2.95;0.73;;;4.20;99.90;;;;;;4997674;28;20062;-76
2022/03/30 05:29:16;;;;;;;2.50;1.23;;;4.10;99.90;;;;;;4998064;28;20030;-75
2022/03/30 05:31:42;;;;;;;2.88;1.00;;;4.00;99.90;;;;;;5012966;28;20038;-76
2022/03/30 05:34:07;;;;;;;2.58;1.20;;;3.90;99.90;;;;;;5005925;28;20102;-78
2022/03/30 05:36:33;;;;;;;3.10;1.10;;;4.00;99.90;;;;;;4999011;28;20054;-77
2022/03/30 05:38:58;;;;;;;3.13;1.00;;;3.90;99.90;;;;;;4997060;28;20031;-77
2022/03/30 05:41:24;;;;;;;1.95;1.23;;;3.90;99.90;;;;;;5003112;28;20544;-77
2022/03/30 05:43:49;;;;;;;3.13;0.98;;;3.90;99.90;;;;;;5006370;28;20100;-77
2022/03/30 05:46:15;;;;;;;1.30;0.75;;;3.90;99.90;;;;;;5005757;28;20073;-77
2022/03/30 05:48:40;;;;;;;2.25;1.10;;;4.00;99.90;;;;;;4999787;28;20043;-76
2022/03/30 05:51:06;;;;;;;3.35;0.80;;;4.10;99.90;;;;;;4997014;28;20034;-76
2022/03/30 05:53:32;;;;;;;3.13;1.00;;;4.30;99.90;;;;;;4998640;28;20034;-76
2022/03/30 05:55:57;;;;;;;1.33;1.00;;;4.40;99.90;;;;;;5002488;28;20061;-77
2022/03/30 05:58:23;;;;;;;3.40;1.35;;;4.50;99.90;;;;;;5007047;28;20082;-77
2022/03/30 06:00:50;;;;;;;4.20;1.40;;;4.50;99.90;;;;;;5005768;28;20074;-78
2022/03/30 06:03:16;;;;;;;4.43;1.45;;;4.60;99.90;;;;;;5002948;28;20038;-78
2022/03/30 06:05:42;;;;;;;4.28;1.00;;;4.70;99.90;;;;;;5001490;28;20022;-78
2022/03/30 06:08:09;;;;;;;3.33;1.50;;;4.70;99.90;;;;;;5002844;28;20026;-78
2022/03/30 06:10:35;;;;;;;3.08;1.38;;;4.80;99.90;;;;;;5003543;28;20076;-77
2022/03/30 06:13:02;;;;;;;4.32;1.00;;;4.90;99.90;;;;;;5005927;28;20041;-78
2022/03/30 06:15:28;;;;;;;4.03;1.20;;;5.00;94.30;;;;;;5003535;28;20030;-78
2022/03/30 06:17:55;;;;;;;2.55;0.90;;;5.10;83.20;;;;;;5006133;28;20037;-77
2022/03/30 06:20:25;;;;;;;2.75;1.17;;;5.20;65.90;;;;;;5001594;28;20053;-78
2022/03/30 06:22:52;;;;;;;4.65;1.60;;;5.30;57.80;;;;;;5000775;28;20023;-78
2022/03/30 06:25:19;;;;;;;3.78;1.30;;;5.40;40.40;;;;;;5000106;28;20113;-78
2022/03/30 06:27:45;;;;;;;2.90;1.10;;;5.50;23.40;;;;;;4995049;28;20077;-78
2022/03/30 06:30:11;;;;;;;3.38;1.30;;;5.60;18.70;;;;;;4991960;28;20030;-78
2022/03/30 06:32:37;;;;;;;2.38;1.08;;;5.70;6.20;;;;;;5002380;28;20037;-77
2022/03/30 06:35:04;;;;;;;5.72;1.20;;;5.80;1.00;;;;;;4999562;28;20022;-77
2022/03/30 06:37:30;;;;;;;4.13;1.23;;;6.00;1.00;;;;;;5000769;28;20022;-77
2022/03/30 06:39:55;;;;;;;5.63;1.38;;;6.20;1.00;;;;;;5001243;28;20034;-78
2022/03/30 06:42:21;;;;;;;1.88;0.90;;;6.20;1.00;;;;;;5004339;28;20030;-78
2022/03/30 06:44:46;;;;;;;2.90;1.10;;;6.30;1.00;;;;;;4987039;28;20076;-78
2022/03/30 06:47:12;;;;;;;1.55;0.95;;;6.40;1.00;;;;;;4997104;28;20058;-77
2022/03/30 06:49:38;;;;;;;2.40;1.05;;;6.60;1.00;;;;;;4999195;28;20058;-78
2022/03/30 06:52:08;;;;;;;3.33;1.23;;;6.80;1.00;;;;;;4999655;28;20034;-77
2022/03/30 06:54:37;;;;;;;1.75;1.10;;;6.90;1.00;;;;;;4991481;28;20022;-78
2022/03/30 06:57:04;;;;;;;2.97;1.33;;;7.00;1.00;;;;;;4998666;28;20037;-77
2022/03/30 06:59:30;;;;;;;3.65;1.10;;;7.10;1.00;;;;;;5000023;28;20030;-77
2022/03/30 07:01:56;;;;;;;4.28;1.10;;;7.50;1.00;;;;;;4999630;28;20310;-77
2022/03/30 07:04:22;;;;;;;4.03;1.27;;;7.70;1.00;;;;;;5000759;28;20029;-77
2022/03/30 07:12:16;;;;;;;1.55;0.80;;;7.90;1.00;;;;;;5001362;28;20057;-77
2022/03/30 07:14:46;;;;;;;2.95;0.80;;;7.90;99.90;;;;;;5001657;28;20422;-77
2022/03/30 07:17:11;;;;;;;1.30;0.68;;;8.00;99.90;;;;;;5001058;28;20471;-79
2022/03/30 07:19:38;;;;;;;2.08;1.10;;;8.20;99.90;;;;;;4983671;28;20034;-78
2022/03/30 07:22:04;;;;;;;3.05;0.60;;;8.60;99.90;;;;;;4996734;28;20023;-78
2022/03/30 07:24:29;;;;;;;4.18;0.77;;;8.60;99.90;;;;;;4997328;28;20111;-78
2022/03/30 07:26:55;;;;;;;2.60;0.50;;;8.60;99.90;;;;;;5003881;28;20026;-77
2022/03/30 07:29:20;;;;;;;2.42;0.70;;;8.80;99.90;;;;;;4998841;28;20026;-79
2022/03/30 07:31:46;;;;;;;3.85;0.80;;;9.20;99.90;;;;;;4991931;28;20027;-78
2022/03/30 07:34:12;;;;;;;3.55;0.85;;;9.20;99.90;;;;;;5004651;28;20030;-77
2022/03/30 07:36:38;;;;;;;6.05;1.00;;;9.80;99.90;;;;;;5004891;28;20104;-77
2022/03/30 07:39:04;;;;;;;1.88;0.70;;;9.30;99.90;;;;;;4997440;28;20758;-78
2022/03/30 07:41:30;;;;;;;4.70;0.70;;;9.80;99.90;;;;;;4988462;28;20044;-78
2022/03/30 07:43:56;;;;;;;2.63;0.57;;;10.30;99.90;;;;;;4983183;28;20034;-77
2022/03/30 07:46:21;;;;;;;2.80;0.70;;;10.50;99.90;;;;;;4992573;28;20058;-78
2022/03/30 07:48:47;;;;;;;0.57;0.40;;;10.80;99.90;;;;;;4995842;28;20069;-78
2022/03/30 07:51:12;;;;;;;2.42;0.43;;;10.80;99.90;;;;;;4998116;28;20031;-77
2022/03/30 07:53:38;;;;;;;2.83;0.43;;;10.40;99.90;;;;;;5004229;28;20019;-77
2022/03/30 07:56:04;;;;;;;4.38;0.70;;;10.50;99.90;;;;;;5003320;28;20045;-77
2022/03/30 07:58:30;;;;;;;3.60;0.55;;;10.60;99.90;;;;;;4983352;28;20033;-78
2022/03/30 08:00:56;;;;;;;1.35;0.40;;;10.80;99.90;;;;;;5000088;28;20413;-78
2022/03/30 08:03:21;;;;;;;3.30;0.70;;;9.90;99.90;;;;;;5004279;28;20030;-77
2022/03/30 08:05:47;;;;;;;1.02;0.50;;;9.60;99.90;;;;;;4999004;28;20168;-78
2022/03/30 08:08:13;;;;;;;2.45;0.90;;;9.60;99.90;;;;;;4996720;28;20037;-77
2022/03/30 08:10:39;;;;;;;2.35;0.85;;;9.00;99.90;;;;;;5003487;28;20041;-77
2022/03/30 08:13:05;;;;;;;3.05;0.65;;;8.90;99.90;;;;;;5003780;28;20030;-77
2022/03/30 08:15:32;;;;;;;3.90;0.63;;;8.80;99.90;;;;;;5002224;28;20062;-78
2022/03/30 08:17:58;;;;;;;1.70;0.57;;;8.50;99.90;;;;;;5001096;28;20030;-78
2022/03/30 08:23:10;;;;;;;1.75;0.40;;;8.50;99.90;;;;;;5004799;28;20041;-78
2022/03/30 08:25:36;;;;;;;3.47;0.60;;;8.60;99.90;;;;;;5005648;28;20034;-77
2022/03/30 08:28:03;;;;;;;5.82;0.40;;;8.60;99.90;;;;;;5004808;28;20027;-78
2022/03/30 08:30:28;;;;;;;4.35;0.73;;;8.00;99.90;;;;;;5002356;28;20098;-77
2022/03/30 08:32:54;;;;;;;3.47;0.40;;;7.90;99.90;;;;;;5000078;28;20057;-77
2022/03/30 08:35:21;;;;;;;5.10;0.75;;;7.60;99.90;;;;;;4998913;28;20073;-78
2022/03/30 08:37:46;;;;;;;2.47;0.60;;;7.60;99.90;;;;;;5001481;28;20029;-77
2022/03/30 08:40:12;;;;;;;0.75;0.50;;;7.60;99.90;;;;;;5002231;28;20054;-77
2022/03/30 08:42:40;;;;;;;1.85;0.60;;;8.00;99.90;;;;;;5000021;28;20369;-77
2022/03/30 08:45:07;;;;;;;1.85;0.55;;;9.10;99.90;;;;;;5002614;28;20041;-78
2022/03/30 08:47:35;;;;;;;1.08;0.52;;;9.10;99.90;;;;;;5002896;28;20039;-77
2022/03/30 08:50:02;;;;;;;4.28;0.60;;;9.30;99.90;;;;;;5004498;28;20086;-77
2022/03/30 08:52:28;;;;;;;0.60;0.60;;;10.10;99.90;;;;;;4997839;28;20053;-78
2022/03/30 08:54:53;;;;;;;4.07;0.60;;;10.50;99.90;;;;;;5002919;28;20030;-77
2022/03/30 08:57:19;;;;;;;1.65;0.77;;;10.50;99.90;;;;;;5002912;28;20033;-77
2022/03/30 09:00:21;;;;;;;1.05;0.70;;;10.30;99.90;;;;;;4995165;28;20479;-78
2022/03/30 09:03:01;;;;;;;2.05;0.52;;;10.20;99.90;;;;;;4999866;28;20026;-77
2022/03/30 09:05:33;;;;;;;1.73;0.40;;;10.10;99.90;;;;;;5002953;28;20073;-77
2022/03/30 09:08:16;;;;;;;3.78;0.65;;;10.30;99.90;;;;;;5003399;28;20457;-77
2022/03/30 09:10:44;;;;;;;4.70;0.80;;;9.90;99.90;;;;;;5004138;28;20038;-77
2022/03/30 09:13:11;;;;;;;0.50;0.40;;;9.80;99.90;;;;;;5004256;28;20041;-77
2022/03/30 09:15:38;;;;;;;0.47;0.47;;;9.70;99.90;;;;;;5002585;28;20025;-77
2022/03/30 09:18:11;;;;;;;0.47;0.40;;;9.40;99.90;;;;;;5002143;28;20401;-77
2022/03/30 09:20:40;;;;;;;2.63;0.80;;;9.80;99.90;;;;;;5003503;28;20022;-77
2022/03/30 09:23:07;;;;;;;2.58;0.68;;;9.90;99.90;;;;;;5002644;28;20065;-77
2022/03/30 09:25:33;;;;;;;2.00;0.60;;;11.10;99.90;;;;;;5004003;28;20376;-77
2022/03/30 09:27:59;;;;;;;3.50;0.68;;;11.70;99.90;;;;;;5002845;28;20509;-77
2022/03/30 09:30:26;;;;;;;1.67;0.40;;;11.90;99.90;;;;;;5002661;28;20038;-77
2022/03/30 09:32:54;;;;;;;1.23;0.40;;;12.40;99.90;;;;;;5002779;28;20517;-78
2022/03/30 09:35:28;;;;;;;3.85;0.68;;;12.80;99.90;;;;;;5002384;28;20026;-77
2022/03/30 09:38:16;;;;;;;1.35;0.80;;;12.10;99.90;;;;;;5002671;28;20019;-77
2022/03/30 09:40:47;;;;;;;2.90;0.63;;;12.40;99.90;;;;;;5001457;28;20033;-76
2022/03/30 09:43:24;;;;;;;2.03;0.55;;;12.60;99.90;;;;;;5001126;28;20026;-77
2022/03/30 09:46:05;;;;;;;1.30;0.50;;;13.50;99.90;;;;;;5003899;28;20042;-77
2022/03/30 09:48:35;;;;;;;0.73;0.50;;;14.30;99.90;;;;;;4994702;28;20323;-77
2022/03/30 09:51:02;;;;;;;0.50;0.50;;;14.20;99.90;;;;;;4998313;28;20023;-77
2022/03/30 09:53:30;;;;;;;2.30;0.60;;;14.80;99.90;;;;;;4993879;28;20036;-77
2022/03/30 09:55:59;;;;;;;1.88;0.45;;;14.40;99.90;;;;;;4991092;28;20451;-78
2022/03/30 09:58:31;;;;;;;4.50;0.80;;;14.40;99.90;;;;;;4998711;28;20026;-78
2022/03/30 10:01:05;;;;;;;1.33;0.40;;;13.60;99.90;;;;;;5000266;28;20451;-78
2022/03/30 10:03:49;;;;;;;0.45;0.30;;;14.10;99.90;;;;;;4998468;28;20018;-78
2022/03/30 10:06:22;;;;;;;1.05;0.38;;;13.90;99.90;;;;;;4998951;28;20023;-78
2022/03/30 10:08:50;;;;;;;0.88;0.32;;;13.80;99.90;;;;;;4998438;28;20034;-78
2022/03/30 10:11:16;;;;;;;1.40;0.35;;;12.40;99.90;;;;;;5005652;28;20210;-77
2022/03/30 10:13:47;;;;;;;1.10;0.30;;;11.60;99.90;;;;;;5005988;28;20029;-78
2022/03/30 10:16:13;;;;;;;1.00;0.20;;;14.80;99.90;;;;;;4998996;28;20023;-78
2022/03/30 10:18:39;;;;;;;1.35;0.50;;;15.80;99.90;;;;;;4996704;28;20022;-78
2022/03/30 10:21:19;;;;;;;2.45;0.40;;;17.50;99.90;;;;;;4991866;28;20078;-78
2022/03/30 10:24:10;;;;;;;1.38;0.30;;;17.90;99.90;;;;;;4994510;28;20102;-78
2022/03/30 10:27:23;;;;;;;1.55;0.28;;;15.70;99.90;;;;;;5005072;28;20033;-78
2022/03/30 10:29:52;;;;;;;1.45;0.30;;;16.10;99.90;;;;;;4982920;28;20073;-78
2022/03/30 10:32:19;;;;;;;2.90;0.60;;;13.20;99.90;;;;;;5004986;28;20105;-78
2022/03/30 10:35:11;;;;;;;2.53;0.55;;;12.50;99.90;;;;;;5005964;28;20022;-78
2022/03/30 10:37:42;;;;;;;0.75;0.28;;;13.30;99.90;;;;;;4995723;28;20053;-78
2022/03/30 10:40:19;;;;;;;2.42;0.45;;;12.80;99.90;;;;;;5004520;28;20026;-77
2022/03/30 10:42:51;;;;;;;0.85;0.82;;;11.40;99.90;;;;;;5007122;28;20022;-79
2022/03/30 10:45:43;;;;;;;1.52;0.52;;;11.50;99.90;;;;;;5006518;28;20038;-78
2022/03/30 10:48:23;;;;;;;1.48;0.38;;;10.90;99.90;;;;;;5008942;28;20088;-79
2022/03/30 10:51:10;;;;;;;1.35;0.40;;;10.80;99.90;;;;;;5000986;28;20547;-78
2022/03/30 10:53:38;;;;;;;1.98;0.30;;;11.50;99.90;;;;;;5006977;28;20034;-78
2022/03/30 10:56:19;;;;;;;2.53;0.70;;;12.60;99.90;;;;;;5008881;28;20026;-79
2022/03/30 10:58:55;;;;;;;0.20;0.20;;;12.20;99.90;;;;;;4998863;28;20651;-78
2022/03/30 11:01:35;;;;;;;2.97;0.30;;;12.50;99.90;;;;;;5002642;28;20032;-78
2022/03/30 11:04:05;;;;;;;2.40;0.40;;;12.20;99.90;;;;;;4998135;28;20030;-78
2022/03/30 11:06:35;;;;;;;0.40;0.38;;;12.10;99.90;;;;;;5009592;28;20014;-79
2022/03/30 11:09:03;;;;;;;0.80;0.50;;;12.40;99.90;;;;;;5009607;28;20053;-78
2022/03/30 11:11:39;;;;;;;2.08;0.38;;;12.40;99.90;;;;;;4999217;28;20029;-78
2022/03/30 11:14:24;;;;;;;2.65;0.57;;;11.50;99.90;;;;;;5002381;28;20098;-79
2022/03/30 11:16:52;;;;;;;3.85;0.70;;;11.30;99.90;;;;;;5002423;28;20022;-78
2022/03/30 11:19:17;;;;;;;2.60;0.40;;;11.00;99.90;;;;;;5007346;28;20018;-78
2022/03/30 11:21:54;;;;;;;1.63;0.50;;;11.10;99.90;;;;;;5005113;28;20025;-79
2022/03/30 11:24:23;;;;;;;1.52;0.80;;;10.80;99.90;;;;;;5005713;28;20090;-78
2022/03/30 11:26:48;;;;;;;0.75;0.50;;;10.80;99.90;;;;;;5013498;28;20029;-78
2022/03/30 11:29:48;;;;;;;1.30;0.40;;;11.20;99.90;;;;;;5012958;28;20034;-78
2022/03/30 11:32:26;;;;;;;1.25;0.60;;;10.90;99.90;;;;;;5013250;28;20461;-79
2022/03/30 11:35:03;;;;;;;0.30;0.30;;;10.90;99.90;;;;;;5013148;28;20018;-78
2022/03/30 11:37:47;;;;;;;2.08;0.50;;;10.60;99.90;;;;;;5011330;28;20030;-79
2022/03/30 11:40:14;;;;;;;0.73;0.43;;;10.00;99.90;;;;;;4996510;28;20026;-79
2022/03/30 11:42:44;;;;;;;1.45;0.40;;;10.20;99.90;;;;;;5010349;28;20022;-79
2022/03/30 11:45:12;;;;;;;0.88;0.25;;;10.30;99.90;;;;;;5011011;28;20019;-79
2022/03/30 11:47:49;;;;;;;1.90;0.50;;;10.20;99.90;;;;;;5013004;28;20085;-78
2022/03/30 11:50:29;;;;;;;1.23;0.40;;;10.20;99.90;;;;;;5014451;28;20078;-79
2022/03/30 11:52:57;;;;;;;4.38;0.40;;;10.10;99.90;;;;;;5015228;28;20044;-79
2022/03/30 11:55:23;;;;;;;3.22;0.50;;;10.50;99.90;;;;;;5017240;28;20030;-79
2022/03/30 11:57:51;;;;;;;0.35;0.25;;;10.20;99.90;;;;;;5019114;28;20058;-79
2022/03/30 12:00:17;;;;;;;0.65;0.40;;;10.20;99.90;;;;;;5017969;28;20102;-79
2022/03/30 12:02:45;;;;;;;0.90;0.40;;;10.10;99.90;;;;;;5017524;28;20038;-79
2022/03/30 12:05:10;;;;;;;2.42;0.77;;;10.00;99.90;;;;;;5017636;28;20086;-78
2022/03/30 12:07:38;;;;;;;1.05;0.32;;;9.70;99.90;;;;;;5018410;28;20568;-79
2022/03/30 12:10:06;;;;;;;1.95;0.63;;;10.00;99.90;;;;;;5010764;28;20026;-79
2022/03/30 12:12:37;;;;;;;1.35;0.70;;;10.20;99.90;;;;;;5014865;28;20041;-79
2022/03/30 12:15:04;;;;;;;;;;;10.50;99.90;;;;;;5016398;28;20049;-79
2022/03/30 12:17:29;;;;;;;1.95;0.68;;;9.90;99.90;;;;;;5002204;28;20352;-78
2022/03/30 12:19:55;;;;;;;4.07;0.95;;;9.90;99.90;;;;;;5000791;28;20053;-78
2022/03/30 12:22:22;;;;;;;1.23;0.52;;;10.40;99.90;;;;;;5000038;28;20027;-79
2022/03/30 12:24:48;;;;;;;2.80;0.73;;;10.30;99.90;;;;;;5001594;28;20577;-79
2022/03/30 12:27:14;;;;;;;1.10;0.70;;;10.40;99.90;;;;;;5007398;28;20038;-79
2022/03/30 12:29:40;;;;;;;2.45;0.68;;;10.10;99.90;;;;;;5006930;28;20026;-79
2022/03/30 12:32:10;;;;;;;2.15;0.85;;;9.60;99.90;;;;;;5002736;28;20038;-79
2022/03/30 12:34:37;;;;;;;1.90;1.00;;;9.50;99.90;;;;;;5015011;28;20086;-79
2022/03/30 12:37:08;;;;;;;0.93;0.60;;;9.40;99.90;;;;;;5012611;28;20029;-79
2022/03/30 12:39:45;;;;;;;3.22;0.65;;;9.70;99.90;;;;;;4995225;28;20057;-79
2022/03/30 12:42:21;;;;;;;3.90;0.50;;;9.70;99.90;;;;;;5004356;28;20038;-79
2022/03/30 12:44:56;;;;;;;1.10;0.40;;;10.00;99.90;;;;;;5005246;28;20027;-78
2022/03/30 12:47:29;;;;;;;2.15;0.50;;;9.90;99.90;;;;;;5003141;28;20046;-79
2022/03/30 12:49:57;;;;;;;2.65;0.65;;;9.90;99.90;;;;;;5004873;28;20018;-79
2022/03/30 12:52:32;;;;;;;3.03;0.40;;;9.70;99.90;;;;;;5002989;28;20022;-79
2022/03/30 12:55:34;;;;;;;0.28;0.22;;;9.70;99.90;;;;;;5006483;28;20054;-79
2022/03/30 12:58:16;;;;;;;1.50;0.60;;;9.80;99.90;;;;;;4997118;28;20030;-78
2022/03/30 13:00:53;;;;;;;4.50;0.60;;;9.80;99.90;;;;;;5008581;28;20042;-79
2022/03/30 13:03:28;;;;;;;1.65;0.60;;;10.00;99.90;;;;;;5011647;28;20077;-78
2022/03/30 13:06:07;;;;;;;4.18;0.77;;;10.00;99.90;;;;;;4996468;28;20389;-78
2022/03/30 13:08:34;;;;;;;2.23;0.50;;;9.50;99.90;;;;;;5005874;28;20034;-78
2022/03/30 13:11:06;;;;;;;2.67;0.60;;;9.60;99.90;;;;;;5004106;28;20280;-78